createdAt,value
2022-09-28T00:01:58.000Z,0.52
2022-09-28T00:04:26.139Z,0.40
2022-09-28T00:06:56.033Z,0.35
2022-09-28T00:09:26.453Z,0.30
2022-09-28T00:11:56.305Z,0.60
2022-09-28T00:14:26.602Z,0.40
2022-09-28T00:16:55.035Z,0.47
2022-09-28T00:19:23.391Z,0.38
2022-09-28T00:21:52.543Z,0.40
2022-09-28T00:24:25.341Z,0.32
2022-09-28T00:27:02.336Z,0.30
2022-09-28T00:29:37.370Z,0.25
2022-09-28T00:32:13.419Z,0.50
2022-09-28T00:34:49.607Z,0.35
2022-09-28T00:37:20.243Z,0.40
2022-09-28T00:39:49.494Z,0.40
2022-09-28T00:42:22.222Z,0.28
2022-09-28T00:45:00.234Z,0.47
2022-09-28T00:47:54.488Z,0.40
2022-09-28T00:50:36.006Z,0.35
2022-09-28T00:53:24.552Z,0.47
2022-09-28T00:56:03.759Z,0.40
2022-09-28T00:58:40.330Z,0.32
2022-09-28T01:01:15.347Z,0.30
2022-09-28T01:03:49.253Z,0.40
2022-09-28T01:06:24.146Z,0.40
2022-09-28T01:08:56.608Z,0.40
2022-09-28T01:11:26.304Z,0.60
2022-09-28T01:14:00.502Z,0.40
2022-09-28T01:16:51.011Z,0.40
2022-09-28T01:19:57.260Z,0.32
2022-09-28T01:22:48.410Z,0.60
2022-09-28T01:26:06.920Z,0.63
2022-09-28T01:28:37.360Z,0.50
2022-09-28T01:31:16.282Z,0.60
2022-09-28T01:34:24.385Z,0.50
2022-09-28T01:36:58.439Z,0.55
2022-09-28T01:39:41.622Z,0.40
2022-09-28T01:42:23.919Z,0.50
2022-09-28T01:44:58.787Z,0.73
2022-09-28T01:47:33.998Z,0.60
2022-09-28T01:50:21.620Z,0.50
2022-09-28T01:53:13.104Z,0.47
2022-09-28T01:56:10.444Z,0.60
2022-09-28T01:59:00.829Z,0.65
2022-09-28T02:01:44.427Z,0.60
2022-09-28T02:04:23.913Z,0.65
2022-09-28T02:07:24.547Z,0.80
2022-09-28T02:10:00.976Z,0.55
2022-09-28T02:13:00.607Z,0.70
2022-09-28T02:15:52.686Z,0.70
2022-09-28T02:18:21.331Z,0.80
2022-09-28T02:21:09.353Z,0.65
2022-09-28T02:23:42.690Z,0.80
2022-09-28T02:26:16.396Z,0.70
2022-09-28T02:28:44.663Z,0.60
2022-09-28T02:31:15.125Z,0.60
2022-09-28T02:33:46.541Z,0.68
2022-09-28T02:36:17.883Z,0.45
2022-09-28T02:38:48.710Z,0.43
2022-09-28T02:41:59.523Z,0.60
2022-09-28T02:45:05.344Z,0.50
2022-09-28T02:48:31.448Z,0.40
2022-09-28T02:51:47.259Z,0.40
2022-09-28T02:54:54.174Z,0.30
2022-09-28T02:57:56.261Z,0.40
2022-09-28T03:00:25.338Z,0.35
2022-09-28T03:03:28.310Z,0.40
2022-09-28T03:06:15.241Z,0.50
2022-09-28T03:09:06.711Z,0.40
2022-09-28T03:12:00.356Z,0.47
2022-09-28T03:14:28.861Z,0.30
2022-09-28T03:16:58.716Z,0.32
2022-09-28T03:19:34.485Z,0.60
2022-09-28T03:22:03.254Z,0.50
2022-09-28T03:24:32.631Z,0.50
2022-09-28T03:27:00.551Z,0.40
2022-09-28T03:29:32.079Z,0.40
2022-09-28T03:32:04.466Z,0.40
2022-09-28T03:34:34.307Z,0.43
2022-09-28T03:37:03.692Z,0.40
2022-09-28T03:39:31.973Z,0.40
2022-09-28T03:44:35.307Z,0.35
2022-09-28T03:47:03.906Z,0.55
2022-09-28T03:49:33.851Z,0.40
2022-09-28T03:52:03.329Z,0.50
2022-09-28T03:54:33.340Z,0.45
2022-09-28T03:57:02.229Z,0.60
2022-09-28T03:59:30.905Z,0.47
2022-09-28T04:01:59.731Z,0.47
2022-09-28T04:04:28.279Z,0.70
2022-09-28T04:06:56.700Z,0.40
2022-09-28T04:09:26.336Z,0.60
2022-09-28T04:12:03.960Z,0.45
2022-09-28T04:14:35.441Z,0.85
2022-09-28T04:17:07.677Z,0.50
2022-09-28T04:19:38.513Z,0.30
2022-09-28T04:22:19.973Z,0.70
2022-09-28T04:24:49.986Z,0.47
2022-09-28T04:27:37.916Z,0.43
2022-09-28T04:30:11.593Z,0.60
2022-09-28T04:32:43.098Z,0.50
2022-09-28T04:35:12.911Z,0.60
2022-09-28T04:37:43.643Z,0.60
2022-09-28T04:40:13.542Z,0.57
2022-09-28T04:42:53.075Z,0.40
2022-09-28T04:45:27.116Z,0.50
2022-09-28T04:48:00.298Z,0.40
2022-09-28T04:50:58.425Z,0.47
2022-09-28T04:53:30.027Z,0.60
2022-09-28T04:56:06.387Z,0.45
2022-09-28T04:58:38.187Z,0.60
2022-09-28T05:01:11.501Z,0.70
2022-09-28T05:03:58.282Z,0.38
2022-09-28T05:07:00.650Z,0.50
2022-09-28T05:09:33.936Z,0.50
2022-09-28T05:12:04.714Z,0.70
2022-09-28T05:14:33.219Z,0.63
2022-09-28T05:17:02.619Z,0.40
2022-09-28T05:19:39.486Z,0.60
2022-09-28T05:22:13.976Z,0.57
2022-09-28T05:24:48.146Z,0.60
2022-09-28T05:27:18.314Z,0.50
2022-09-28T05:30:00.857Z,0.80
2022-09-28T05:32:33.144Z,0.60
2022-09-28T05:35:28.289Z,0.60
2022-09-28T05:38:03.522Z,0.50
2022-09-28T05:40:34.929Z,0.52
2022-09-28T05:43:04.118Z,0.60
2022-09-28T05:45:34.567Z,0.80
2022-09-28T05:48:06.521Z,1.08
2022-09-28T05:50:34.812Z,0.95
2022-09-28T05:53:06.979Z,0.70
2022-09-28T05:55:42.539Z,0.77
2022-09-28T05:58:10.815Z,0.68
2022-09-28T06:00:38.767Z,0.80
2022-09-28T06:03:12.576Z,0.63
2022-09-28T06:05:43.638Z,0.77
2022-09-28T06:08:13.759Z,0.70
2022-09-28T06:10:48.241Z,0.73
2022-09-28T06:13:16.534Z,0.80
2022-09-28T06:15:48.747Z,0.95
2022-09-28T06:18:19.583Z,0.88
2022-09-28T06:21:16.282Z,0.93
2022-09-28T06:23:49.403Z,0.85
2022-09-28T06:26:20.253Z,0.90
2022-09-28T06:28:52.324Z,0.80
2022-09-28T06:31:24.142Z,1.08
2022-09-28T06:33:53.883Z,1.20
2022-09-28T06:36:24.506Z,1.70
2022-09-28T06:38:54.881Z,1.20
2022-09-28T06:43:57.685Z,0.80
2022-09-28T06:46:44.793Z,0.98
2022-09-28T06:49:19.200Z,1.20
2022-09-28T06:52:07.571Z,0.77
2022-09-28T06:54:59.440Z,1.10
2022-09-28T06:57:40.477Z,0.90
2022-09-28T07:00:13.778Z,1.45
2022-09-28T07:02:44.891Z,1.42
2022-09-28T07:05:42.052Z,1.15
2022-09-28T07:08:31.574Z,1.13
2022-09-28T07:11:20.944Z,0.80
2022-09-28T07:14:17.106Z,1.00
2022-09-28T07:17:10.925Z,0.95
2022-09-28T07:19:41.600Z,0.73
2022-09-28T07:22:18.164Z,1.10
2022-09-28T07:24:49.271Z,0.90
2022-09-28T07:27:41.431Z,1.00
2022-09-28T07:30:35.305Z,1.42
2022-09-28T07:33:44.495Z,1.23
2022-09-28T07:37:02.843Z,1.00
2022-09-28T07:39:34.003Z,1.00
2022-09-28T07:42:05.699Z,0.90
2022-09-28T07:44:35.558Z,1.15
2022-09-28T07:47:04.057Z,1.00
2022-09-28T07:49:59.897Z,1.08
2022-09-28T07:52:47.378Z,1.38
2022-09-28T07:55:26.195Z,1.00
2022-09-28T07:58:18.722Z,1.00
2022-09-28T08:00:56.115Z,1.02
2022-09-28T08:03:25.979Z,0.68
2022-09-28T08:06:09.789Z,0.75
2022-09-28T08:08:44.191Z,1.05
2022-09-28T08:11:19.644Z,0.98
2022-09-28T08:14:19.846Z,1.25
2022-09-28T08:17:08.205Z,0.88
2022-09-28T08:20:01.270Z,1.15
2022-09-28T08:22:32.391Z,0.93
2022-09-28T08:25:03.845Z,0.90
2022-09-28T08:27:32.485Z,0.90
2022-09-28T08:30:00.717Z,0.90
2022-09-28T08:32:49.745Z,0.80
2022-09-28T08:35:46.128Z,0.85
2022-09-28T08:38:23.262Z,1.08
2022-09-28T08:41:30.532Z,0.98
2022-09-28T08:44:27.157Z,0.90
2022-09-28T08:48:15.355Z,0.90
2022-09-28T08:51:21.377Z,0.90
2022-09-28T08:54:59.770Z,0.93
2022-09-28T08:58:15.252Z,1.10
2022-09-28T09:00:52.097Z,0.90
2022-09-28T09:03:45.042Z,0.60
2022-09-28T09:06:52.794Z,1.30
2022-09-28T09:09:56.505Z,1.42
2022-09-28T09:12:43.755Z,0.80
2022-09-28T09:15:39.163Z,1.00
2022-09-28T09:18:43.423Z,1.05
2022-09-28T09:21:48.415Z,0.73
2022-09-28T09:24:28.040Z,1.00
2022-09-28T09:30:19.154Z,1.10
2022-09-28T09:33:29.051Z,0.98
2022-09-28T09:37:20.894Z,1.10
2022-09-28T09:41:07.908Z,1.00
2022-09-28T09:44:50.342Z,1.17
2022-09-28T09:47:59.976Z,0.90
2022-09-28T09:50:40.505Z,0.95
2022-09-28T09:54:07.489Z,1.20
2022-09-28T09:56:40.337Z,0.80
2022-09-28T09:59:34.699Z,0.90
2022-09-28T10:02:28.392Z,0.82
2022-09-28T10:05:31.327Z,1.00
2022-09-28T10:08:16.873Z,0.90
2022-09-28T10:11:09.169Z,0.80
2022-09-28T10:13:45.753Z,0.75
2022-09-28T10:16:35.243Z,0.88
2022-09-28T10:19:08.218Z,0.77
2022-09-28T10:21:59.618Z,0.95
2022-09-28T10:24:49.198Z,0.80
2022-09-28T10:27:32.717Z,0.70
2022-09-28T10:30:03.720Z,0.60
2022-09-28T10:32:48.020Z,0.90
2022-09-28T10:35:19.603Z,0.88
2022-09-28T10:38:37.629Z,0.80
2022-09-28T10:41:15.609Z,0.95
2022-09-28T10:44:11.256Z,0.82
2022-09-28T10:47:13.919Z,0.68
2022-09-28T10:49:47.350Z,0.95
2022-09-28T10:52:46.274Z,0.70
2022-09-28T10:55:37.233Z,0.70
2022-09-28T10:58:32.075Z,0.70
2022-09-28T11:01:20.350Z,0.73
2022-09-28T11:04:07.586Z,0.70
2022-09-28T11:06:41.857Z,0.70
2022-09-28T11:09:41.639Z,1.33
2022-09-28T11:12:22.080Z,0.98
2022-09-28T11:15:02.130Z,1.02
2022-09-28T11:17:40.122Z,1.08
2022-09-28T11:20:33.020Z,0.85
2022-09-28T11:23:26.429Z,0.80
2022-09-28T11:26:07.553Z,0.90
2022-09-28T11:28:39.443Z,1.00
2022-09-28T11:31:15.734Z,1.20
2022-09-28T11:34:36.204Z,0.70
2022-09-28T11:37:50.490Z,0.80
2022-09-28T11:41:04.906Z,0.93
2022-09-28T11:44:08.794Z,0.75
2022-09-28T11:47:29.002Z,1.00
2022-09-28T11:50:36.247Z,1.00
2022-09-28T11:53:18.401Z,0.77
2022-09-28T11:56:39.699Z,0.90
2022-09-28T11:59:51.597Z,0.90
2022-09-28T12:02:59.039Z,0.80
2022-09-28T12:06:43.846Z,0.88
2022-09-28T12:09:58.495Z,0.80
2022-09-28T12:12:38.547Z,0.97
2022-09-28T12:16:17.447Z,1.17
2022-09-28T12:18:55.444Z,1.10
2022-09-28T12:21:53.496Z,1.10
2022-09-28T12:24:44.689Z,1.00
2022-09-28T12:27:43.304Z,1.10
2022-09-28T12:30:25.730Z,1.08
2022-09-28T12:33:13.547Z,0.90
2022-09-28T12:35:51.137Z,0.70
2022-09-28T12:39:08.417Z,0.73
2022-09-28T12:42:18.131Z,0.75
2022-09-28T12:45:09.459Z,1.05
2022-09-28T12:48:12.195Z,0.88
2022-09-28T12:51:41.293Z,0.70
2022-09-28T12:55:06.250Z,0.70
2022-09-28T12:58:22.954Z,0.90
2022-09-28T13:01:22.311Z,0.80
2022-09-28T13:04:12.788Z,1.17
2022-09-28T13:07:25.380Z,0.82
2022-09-28T13:13:13.551Z,0.85
2022-09-28T13:16:01.909Z,1.38
2022-09-28T13:18:44.430Z,0.93
2022-09-28T13:21:31.143Z,1.20
2022-09-28T13:24:27.771Z,0.98
2022-09-28T13:27:00.612Z,0.90
2022-09-28T13:29:30.868Z,0.73
2022-09-28T13:32:21.076Z,0.60
2022-09-28T13:35:21.837Z,0.95
2022-09-28T13:38:33.347Z,0.80
2022-09-28T13:43:51.021Z,0.80
2022-09-28T13:46:44.188Z,0.90
2022-09-28T13:49:42.953Z,1.05
2022-09-28T13:52:56.196Z,0.85
2022-09-28T13:55:57.334Z,0.50
2022-09-28T13:58:43.832Z,0.82
2022-09-28T14:01:32.628Z,0.65
2022-09-28T14:04:23.595Z,0.82
2022-09-28T14:07:35.316Z,0.75
2022-09-28T14:10:44.111Z,0.70
2022-09-28T14:13:33.999Z,0.90
2022-09-28T14:16:36.715Z,0.77
2022-09-28T14:19:36.179Z,0.68
2022-09-28T14:22:31.206Z,0.80
2022-09-28T14:25:27.747Z,1.20
2022-09-28T14:28:38.529Z,0.80
2022-09-28T14:31:27.634Z,0.77
2022-09-28T14:34:01.691Z,0.88
2022-09-28T14:37:01.590Z,0.80
2022-09-28T14:39:53.928Z,0.60
2022-09-28T14:42:25.762Z,0.70
2022-09-28T14:45:06.587Z,0.65
2022-09-28T14:47:43.112Z,0.88
2022-09-28T14:50:29.137Z,0.80
2022-09-28T14:53:13.689Z,0.90
2022-09-28T14:55:50.304Z,0.70
2022-09-28T14:58:30.196Z,0.60
2022-09-28T15:01:13.915Z,0.68
2022-09-28T15:03:47.733Z,0.73
2022-09-28T15:06:20.469Z,0.90
2022-09-28T15:08:52.677Z,0.65
2022-09-28T15:11:27.837Z,0.80
2022-09-28T15:14:08.395Z,0.95
2022-09-28T15:16:37.041Z,1.55
2022-09-28T15:19:42.901Z,0.80
2022-09-28T15:22:20.441Z,0.90
2022-09-28T15:25:02.449Z,1.10
2022-09-28T15:27:39.095Z,1.17
2022-09-28T15:30:32.287Z,0.95
2022-09-28T15:36:05.994Z,0.70
2022-09-28T15:41:07.490Z,0.60
2022-09-28T15:43:38.396Z,0.70
2022-09-28T15:46:19.401Z,0.65
2022-09-28T15:48:57.685Z,0.77
2022-09-28T15:51:28.462Z,0.80
2022-09-28T15:54:04.553Z,0.82
2022-09-28T15:56:50.242Z,0.65
2022-09-28T15:59:39.367Z,0.43
2022-09-28T16:02:22.672Z,0.52
2022-09-28T16:05:00.925Z,0.50
2022-09-28T16:07:41.695Z,0.80
2022-09-28T16:10:12.759Z,0.70
2022-09-28T16:12:58.875Z,0.95
2022-09-28T16:15:34.562Z,0.60
2022-09-28T16:18:18.225Z,0.60
2022-09-28T16:20:53.747Z,0.70
2022-09-28T16:23:35.184Z,0.70
2022-09-28T16:26:14.993Z,0.73
2022-09-28T16:28:46.370Z,1.00
2022-09-28T16:31:14.845Z,1.15
2022-09-28T16:33:56.780Z,1.17
2022-09-28T16:36:30.107Z,1.40
2022-09-28T16:39:02.085Z,1.60
2022-09-28T16:41:42.510Z,1.20
2022-09-28T16:44:28.874Z,1.00
2022-09-28T16:46:58.836Z,2.00
2022-09-28T16:49:30.825Z,1.80
2022-09-28T16:52:00.135Z,1.10
2022-09-28T16:54:48.830Z,1.30
2022-09-28T16:57:19.680Z,1.40
2022-09-28T16:59:50.061Z,1.40
2022-09-28T17:05:18.183Z,1.35
2022-09-28T17:08:12.449Z,1.70
2022-09-28T17:11:24.062Z,1.52
2022-09-28T17:13:59.487Z,1.30
2022-09-28T17:17:02.285Z,1.10
2022-09-28T17:19:29.013Z,1.23
2022-09-28T17:21:58.115Z,1.10
2022-09-28T17:24:26.655Z,1.00
2022-09-28T17:26:57.246Z,0.85
2022-09-28T17:29:25.850Z,1.40
2022-09-28T17:31:55.147Z,1.10
2022-09-28T17:34:24.669Z,1.02
2022-09-28T17:36:54.592Z,1.20
2022-09-28T17:39:25.435Z,1.58
2022-09-28T17:41:55.280Z,1.47
2022-09-28T17:44:24.515Z,1.30
2022-09-28T17:46:54.188Z,2.17
2022-09-28T17:49:23.715Z,3.90
2022-09-28T17:51:53.162Z,3.28
2022-09-28T17:54:23.476Z,4.68
2022-09-28T17:56:51.770Z,2.67
2022-09-28T17:59:20.992Z,1.80
2022-09-28T18:01:50.180Z,1.58
2022-09-28T18:04:47.098Z,1.13
2022-09-28T18:07:08.597Z,1.10
2022-09-28T18:09:37.518Z,1.30
2022-09-28T18:12:07.902Z,1.13
2022-09-28T18:14:36.827Z,1.20
2022-09-28T18:17:06.087Z,1.30
2022-09-28T18:19:38.067Z,1.20
2022-09-28T18:22:07.657Z,1.40
2022-09-28T18:24:37.735Z,1.58
2022-09-28T18:27:05.982Z,1.33
2022-09-28T18:29:34.161Z,1.90
2022-09-28T18:32:03.768Z,1.80
2022-09-28T18:34:39.340Z,1.92
2022-09-28T18:37:08.633Z,1.73
2022-09-28T18:39:37.582Z,1.50
2022-09-28T18:42:10.973Z,1.85
2022-09-28T18:44:39.995Z,2.00
2022-09-28T18:47:09.470Z,2.50
2022-09-28T18:49:38.410Z,2.72
2022-09-28T18:52:07.604Z,2.70
2022-09-28T18:54:37.357Z,2.60
2022-09-28T18:57:08.897Z,2.22
2022-09-28T19:02:17.239Z,1.45
2022-09-28T19:04:50.011Z,1.55
2022-09-28T19:07:28.350Z,1.55
2022-09-28T19:09:56.874Z,2.35
2022-09-28T19:12:26.521Z,3.13
2022-09-28T19:14:56.133Z,2.70
2022-09-28T19:17:26.187Z,1.75
2022-09-28T19:19:58.281Z,2.80
2022-09-28T19:22:27.547Z,2.97
2022-09-28T19:24:58.022Z,3.28
2022-09-28T19:27:26.551Z,2.10
2022-09-28T19:29:57.405Z,1.80
2022-09-28T19:32:26.077Z,1.75
2022-09-28T19:34:55.514Z,1.98
2022-09-28T19:37:23.925Z,1.92
2022-09-28T19:39:52.219Z,2.10
2022-09-28T19:42:20.850Z,2.20
2022-09-28T19:44:51.470Z,2.03
2022-09-28T19:47:24.213Z,2.38
2022-09-28T19:49:53.927Z,2.28
2022-09-28T19:52:24.341Z,2.20
2022-09-28T19:55:00.350Z,2.22
2022-09-28T19:57:32.929Z,2.25
2022-09-28T20:00:06.397Z,2.60
2022-09-28T20:02:46.610Z,2.70
2022-09-28T20:05:15.726Z,2.25
2022-09-28T20:07:44.677Z,2.70
2022-09-28T20:10:17.504Z,3.10
2022-09-28T20:12:49.254Z,3.58
2022-09-28T20:15:25.534Z,3.90
2022-09-28T20:17:59.889Z,3.72
2022-09-28T20:20:33.316Z,3.53
2022-09-28T20:23:03.053Z,3.05
2022-09-28T20:25:35.633Z,2.97
2022-09-28T20:28:05.775Z,2.90
2022-09-28T20:30:35.405Z,2.38
2022-09-28T20:33:07.730Z,2.83
2022-09-28T20:35:36.713Z,3.20
2022-09-28T20:38:09.281Z,3.63
2022-09-28T20:40:40.412Z,3.20
2022-09-28T20:43:09.967Z,2.58
2022-09-28T20:45:40.421Z,2.40
2022-09-28T20:48:09.753Z,2.40
2022-09-28T20:50:38.436Z,2.30
2022-09-28T20:53:07.836Z,2.50
2022-09-28T20:55:38.163Z,2.17
2022-09-28T20:58:11.673Z,2.20
2022-09-28T22:11:06.882Z,2.00
2022-09-28T22:13:39.650Z,2.28
2022-09-28T22:16:11.377Z,2.30
2022-09-28T22:18:41.567Z,2.40
2022-09-28T22:21:19.842Z,2.13
2022-09-28T22:23:53.983Z,2.50
2022-09-28T22:26:27.430Z,2.47
2022-09-28T22:28:58.768Z,2.30
2022-09-28T22:31:33.957Z,2.22
2022-09-28T22:34:03.191Z,2.20
2022-09-28T22:36:31.663Z,2.28
2022-09-28T22:39:00.623Z,2.20
2022-09-28T22:41:30.225Z,2.10
2022-09-28T22:43:59.322Z,2.25
2022-09-28T22:46:32.138Z,2.30
2022-09-28T22:49:01.930Z,2.20
2022-09-28T22:51:32.071Z,2.40
2022-09-28T22:54:03.593Z,2.60
2022-09-28T22:56:35.991Z,2.30
2022-09-28T22:59:05.456Z,2.28
2022-09-28T23:01:40.350Z,2.13
2022-09-28T23:04:10.105Z,2.60
2022-09-28T23:06:38.880Z,2.38
2022-09-28T23:09:07.809Z,2.40
2022-09-28T23:11:39.363Z,2.33
2022-09-28T23:14:12.596Z,2.50
2022-09-28T23:16:41.311Z,2.33
2022-09-28T23:19:09.619Z,2.08
2022-09-28T23:21:38.502Z,2.17
2022-09-28T23:24:06.543Z,1.95
2022-09-28T23:26:37.016Z,1.90
2022-09-28T23:29:06.187Z,1.95
2022-09-28T23:31:34.551Z,1.92
2022-09-28T23:34:05.566Z,1.90
2022-09-28T23:36:34.115Z,1.92
2022-09-28T23:39:03.250Z,2.00
2022-09-28T23:41:31.348Z,1.80
2022-09-28T23:43:59.739Z,2.05
2022-09-28T23:46:27.878Z,2.00
2022-09-28T23:48:56.015Z,1.90
2022-09-28T23:51:24.294Z,2.35
2022-09-28T23:53:54.384Z,2.10
2022-09-28T23:56:22.698Z,1.85
2022-09-28T23:58:51.022Z,2.10
